Terminal Aerodrome Forecast
Issued by NWS Sterling, VA

Current Version | Previous Version | Text Only | Print | Product List | Glossary Off
Versions: 1 2 3 4 5 6 7 8 9 10 11 12 13 14 15 16 17 18 19 20 21 22

145
FTUS41 KLWX 221445 AAA
TAFIAD
TAF AMD
KIAD 221445Z 2215/2318 33019G30KT P6SM FEW040
     FM221800 33017G27KT P6SM FEW250
     FM222300 34012G20KT P6SM SKC
     FM230100 34008KT P6SM SKC
     FM230600 35004KT P6SM SKC=

USA.gov is the U.S. government's official web portal to all federal, state and local government web resources and services.